Terminal Aerodrome Forecast
Issued by NWS Chicago, IL

Home | Current Version | Previous Version | Graphics & Text | Print | Product List | Glossary On
Versions: 1 2 3 4 5 6 7 8 9 10 11 12 13 14 15 16 17 18 19 20 21 22 23 24 25 26 27 28 29 30 31 32 33 34 35 36 37 38
000
FTUS43 KLOT 250300 AAA
TAFRFD
TAF AMD
KRFD 250303Z 2503/2524 VRB04KT P6SM BKN120
     FM250700 07008KT P6SM OVC009
     FM251300 05017G27KT 3SM -SN BR OVC009
     FM251700 04018G26KT P6SM -SHSN OVC012
     FM251900 04018G26KT P6SM OVC020=

USA.gov is the U.S. government's official web portal to all federal, state and local government web resources and services.